^^
Meteo Knjazevac Station Historical Data
Daily Summary for January 21, 2022 Units:  Both    English   Metric
Daily Weekly Monthly Yearly Custom
  High: Low: Average:
Temperature: 38.3 °F /  3.5 °C 32.2 °F /  0.1 °C 34.1 °F /  1.2 °C
Dew Point: 35.6 °F /  2 °C 28.1 °F /  -2.2 °C 31.2 °F /  -0.4 °C
Humidity: 98% 74% 89%
Wind Speed: 9mph /  14.5km/h - 3.3mph /  5.3km/h
Wind Gust: 16mph /  25.7km/h - -
Wind- - SW
Pressure: 30.23 in /  1023.6 hPa 30.10 in /  1019.2 hPa -
Precipitation: 0.13 in /  3.3 mm    
Historical Graphs
 
 
Tabular Data for January 21, 2022
Time Temperature Dew Point Pressure Wind Wind Speed Wind Gust Humidity Rainfall Rate (Hourly) solar Conditions
00:00 38.3 °F /  3.5 °C 35.6 °F /  2 °C 30.10in /  1019.2hPa NNE 2mph /  3.2km/h 8mph /  12.9km/h 90% 0.00in /  0mm 0 W/m2
00:10 38 °F /  3.3 °C 35.6 °F /  2 °C 30.11in /  1019.5hPa NNE 3mph /  4.8km/h 8mph /  12.9km/h 91% 0.00in /  0mm 0 W/m2
00:20 37.6 °F /  3.1 °C 35.2 °F /  1.8 °C 30.11in /  1019.5hPa NNE 6mph /  9.7km/h 10mph /  16.1km/h 91% 0.00in /  0mm 0 W/m2
00:30 37.1 °F /  2.8 °C 34.7 °F /  1.5 °C 30.11in /  1019.5hPa NNE 6mph /  9.7km/h 12mph /  19.3km/h 91% 0.00in /  0mm 0 W/m2
00:40 36.7 °F /  2.6 °C 34.8 °F /  1.6 °C 30.12in /  1019.9hPa NNE 5mph /  8km/h 12mph /  19.3km/h 93% 0.00in /  0mm 0 W/m2
00:50 36.3 °F /  2.4 °C 34.5 °F /  1.4 °C 30.11in /  1019.5hPa NNE 2mph /  3.2km/h 6mph /  9.7km/h 93% 0.01in /  0.25mm 0 W/m2
01:00 36 °F /  2.2 °C 34.1 °F /  1.2 °C 30.12in /  1019.9hPa NNE 1mph /  1.6km/h 4mph /  6.4km/h 93% 0.00in /  0mm 0 W/m2
01:10 35.8 °F /  2.1 °C 34 °F /  1.1 °C 30.12in /  1019.9hPa NNE 1mph /  1.6km/h 4mph /  6.4km/h 93% 0.00in /  0mm 0 W/m2
01:20 35.6 °F /  2 °C 34 °F /  1.1 °C 30.13in /  1020.2hPa North 1mph /  1.6km/h 5mph /  8km/h 94% 0.00in /  0mm 0 W/m2
01:30 35.4 °F /  1.9 °C 33.9 °F /  1.1 °C 30.13in /  1020.2hPa NNW 1mph /  1.6km/h 5mph /  8km/h 94% 0.00in /  0mm 0 W/m2
01:40 35.2 °F /  1.8 °C 33.7 °F /  0.9 °C 30.13in /  1020.2hPa WNW 1mph /  1.6km/h 4mph /  6.4km/h 94% 0.00in /  0mm 0 W/m2
01:50 35.1 °F /  1.7 °C 33.5 °F /  0.8 °C 30.13in /  1020.2hPa NW 1mph /  1.6km/h 5mph /  8km/h 94% 0.00in /  0mm 0 W/m2
02:00 34.8 °F /  1.6 °C 33.2 °F /  0.7 °C 30.13in /  1020.2hPa Calm   3mph /  4.8km/h 94% 0.00in /  0mm 0 W/m2
02:10 34.6 °F /  1.4 °C 33 °F /  0.6 °C 30.12in /  1019.9hPa West 1mph /  1.6km/h 2mph /  3.2km/h 94% 0.00in /  0mm 0 W/m2
02:20 34.3 °F /  1.3 °C 33.1 °F /  0.6 °C 30.12in /  1019.9hPa SW 1mph /  1.6km/h 3mph /  4.8km/h 95% 0.00in /  0mm 0 W/m2
02:30 34.2 °F /  1.2 °C 32.9 °F /  0.5 °C 30.12in /  1019.9hPa WSW 2mph /  3.2km/h 4mph /  6.4km/h 95% 0.00in /  0mm 0 W/m2
02:40 34 °F /  1.1 °C 32.7 °F /  0.4 °C 30.12in /  1019.9hPa West 1mph /  1.6km/h 5mph /  8km/h 95% 0.00in /  0mm 0 W/m2
02:50 34 °F /  1.1 °C 33 °F /  0.6 °C 30.13in /  1020.2hPa West 3mph /  4.8km/h 5mph /  8km/h 96% 0.00in /  0mm 0 W/m2
03:00 33.8 °F /  1 °C 32.8 °F /  0.4 °C 30.13in /  1020.2hPa WNW 2mph /  3.2km/h 4mph /  6.4km/h 96% 0.00in /  0mm 0 W/m2
03:10 33.8 °F /  1 °C 32.8 °F /  0.4 °C 30.13in /  1020.2hPa NW 2mph /  3.2km/h 5mph /  8km/h 96% 0.00in /  0mm 0 W/m2
03:20 33.8 °F /  1 °C 33.3 °F /  0.7 °C 30.13in /  1020.2hPa NNW 1mph /  1.6km/h 3mph /  4.8km/h 98% 0.00in /  0mm 0 W/m2
03:30 33.8 °F /  1 °C 33.3 °F /  0.7 °C 30.13in /  1020.2hPa NNW 1mph /  1.6km/h 2mph /  3.2km/h 98% 0.00in /  0mm 0 W/m2
03:40 33.8 °F /  1 °C 33.3 °F /  0.7 °C 30.14in /  1020.5hPa North 3mph /  4.8km/h 8mph /  12.9km/h 98% 0.00in /  0mm 0 W/m2
03:50 33.4 °F /  0.8 °C 32.9 °F /  0.5 °C 30.14in /  1020.5hPa Calm   7mph /  11.3km/h 98% 0.00in /  0mm 0 W/m2
04:00 33.4 °F /  0.8 °C 32.9 °F /  0.5 °C 30.14in /  1020.5hPa NE 3mph /  4.8km/h 6mph /  9.7km/h 98% 0.00in /  0mm 0 W/m2
04:10 33.3 °F /  0.7 °C 32.8 °F /  0.4 °C 30.15in /  1020.9hPa Calm   6mph /  9.7km/h 98% 0.00in /  0mm 0 W/m2
04:20 33.3 °F /  0.7 °C 32.8 °F /  0.4 °C 30.15in /  1020.9hPa NNE 3mph /  4.8km/h 6mph /  9.7km/h 98% 0.00in /  0mm 0 W/m2
04:30 33.3 °F /  0.7 °C 32.2 °F /  0.1 °C 30.15in /  1020.9hPa North 3mph /  4.8km/h 7mph /  11.3km/h 96% 0.00in /  0mm 0 W/m2
04:40 33.3 °F /  0.7 °C 31.7 °F /  -0.2 °C 30.16in /  1021.2hPa NNE 3mph /  4.8km/h 12mph /  19.3km/h 94% 0.00in /  0mm 0 W/m2
04:50 33.3 °F /  0.7 °C 31.7 °F /  -0.2 °C 30.16in /  1021.2hPa North 1mph /  1.6km/h 10mph /  16.1km/h 94% 0.00in /  0mm 0 W/m2
05:00 33.3 °F /  0.7 °C 31.7 °F /  -0.2 °C 30.16in /  1021.2hPa NNW 1mph /  1.6km/h 5mph /  8km/h 94% 0.00in /  0mm 0 W/m2
05:10 33.3 °F /  0.7 °C 32 °F /  0 °C 30.16in /  1021.2hPa West 1mph /  1.6km/h 3mph /  4.8km/h 95% 0.00in /  0mm 0 W/m2
05:20 33.3 °F /  0.7 °C 32 °F /  0 °C 30.16in /  1021.2hPa South 1mph /  1.6km/h 2mph /  3.2km/h 95% 0.00in /  0mm 0 W/m2
05:30 33.1 °F /  0.6 °C 31.8 °F /  -0.1 °C 30.16in /  1021.2hPa SW 2mph /  3.2km/h 3mph /  4.8km/h 95% 0.00in /  0mm 0 W/m2
05:40 32.9 °F /  0.5 °C 31.6 °F /  -0.2 °C 30.16in /  1021.2hPa WNW 2mph /  3.2km/h 4mph /  6.4km/h 95% 0.00in /  0mm 0 W/m2
05:50 32.9 °F /  0.5 °C 31.6 °F /  -0.2 °C 30.16in /  1021.2hPa WSW 1mph /  1.6km/h 4mph /  6.4km/h 95% 0.00in /  0mm 0 W/m2
06:00 33.1 °F /  0.6 °C 31.8 °F /  -0.1 °C 30.17in /  1021.6hPa West 3mph /  4.8km/h 7mph /  11.3km/h 95% 0.00in /  0mm 0 W/m2
06:10 32.9 °F /  0.5 °C 31.6 °F /  -0.2 °C 30.17in /  1021.6hPa West 5mph /  8km/h 7mph /  11.3km/h 95% 0.00in /  0mm 0 W/m2
06:20 32.9 °F /  0.5 °C 31.4 °F /  -0.3 °C 30.16in /  1021.2hPa WSW 5mph /  8km/h 7mph /  11.3km/h 94% 0.00in /  0mm 0 W/m2
06:30 32.9 °F /  0.5 °C 31.1 °F /  -0.5 °C 30.17in /  1021.6hPa WSW 2mph /  3.2km/h 7mph /  11.3km/h 93% 0.00in /  0mm 0 W/m2
06:40 32.9 °F /  0.5 °C 31.1 °F /  -0.5 °C 30.18in /  1021.9hPa NW 3mph /  4.8km/h 5mph /  8km/h 93% 0.00in /  0mm 0 W/m2
06:50 32.7 °F /  0.4 °C 30.4 °F /  -0.9 °C 30.18in /  1021.9hPa WSW 7mph /  11.3km/h 10mph /  16.1km/h 91% 0.00in /  0mm 0 W/m2
07:00 32.5 °F /  0.3 °C 29.9 °F /  -1.2 °C 30.18in /  1021.9hPa WSW 7mph /  11.3km/h 13mph /  20.9km/h 90% 0.00in /  0mm 1 W/m2
07:10 32.5 °F /  0.3 °C 29.9 °F /  -1.2 °C 30.19in /  1022.2hPa WSW 7mph /  11.3km/h 13mph /  20.9km/h 90% 0.00in /  0mm 3 W/m2
07:20 32.5 °F /  0.3 °C 29.9 °F /  -1.2 °C 30.19in /  1022.2hPa West 2mph /  3.2km/h 9mph /  14.5km/h 90% 0.00in /  0mm 6 W/m2
07:30 32.4 °F /  0.2 °C 29.8 °F /  -1.2 °C 30.20in /  1022.6hPa WSW 1mph /  1.6km/h 5mph /  8km/h 90% 0.00in /  0mm 13 W/m2
07:40 32.4 °F /  0.2 °C 29.8 °F /  -1.2 °C 30.20in /  1022.6hPa SSW 1mph /  1.6km/h 5mph /  8km/h 90% 0.00in /  0mm 18 W/m2
07:50 32.2 °F /  0.1 °C 29.6 °F /  -1.3 °C 30.21in /  1022.9hPa SSW 2mph /  3.2km/h 5mph /  8km/h 90% 0.00in /  0mm 21 W/m2
08:00 32.2 °F /  0.1 °C 29.6 °F /  -1.3 °C 30.21in /  1022.9hPa SW 3mph /  4.8km/h 5mph /  8km/h 90% 0.00in /  0mm 23 W/m2
08:10 32.2 °F /  0.1 °C 29.3 °F /  -1.5 °C 30.21in /  1022.9hPa SW 2mph /  3.2km/h 5mph /  8km/h 89% 0.00in /  0mm 28 W/m2
08:20 32.2 °F /  0.1 °C 29.3 °F /  -1.5 °C 30.21in /  1022.9hPa SW 2mph /  3.2km/h 5mph /  8km/h 89% 0.00in /  0mm 35 W/m2
08:30 32.2 °F /  0.1 °C 29.3 °F /  -1.5 °C 30.20in /  1022.6hPa Calm   6mph /  9.7km/h 89% 0.00in /  0mm 55 W/m2
08:40 32.2 °F /  0.1 °C 29.6 °F /  -1.3 °C 30.21in /  1022.9hPa WSW 2mph /  3.2km/h 6mph /  9.7km/h 90% 0.00in /  0mm 66 W/m2
08:50 32.2 °F /  0.1 °C 29.9 °F /  -1.2 °C 30.21in /  1022.9hPa SW 3mph /  4.8km/h 6mph /  9.7km/h 91% 0.00in /  0mm 71 W/m2
09:00 32.4 °F /  0.2 °C 29.8 °F /  -1.2 °C 30.21in /  1022.9hPa Calm   5mph /  8km/h 90% 0.00in /  0mm 68 W/m2
09:10 32.5 °F /  0.3 °C 30.2 °F /  -1 °C 30.22in /  1023.2hPa Calm   3mph /  4.8km/h 91% 0.00in /  0mm 75 W/m2
09:20 32.5 °F /  0.3 °C 30.2 °F /  -1 °C 30.22in /  1023.2hPa Calm   2mph /  3.2km/h 91% 0.00in /  0mm 108 W/m2
09:30 32.9 °F /  0.5 °C 30.6 °F /  -0.8 °C 30.22in /  1023.2hPa West 2mph /  3.2km/h 3mph /  4.8km/h 91% 0.00in /  0mm 141 W/m2
09:40 33.1 °F /  0.6 °C 30.2 °F /  -1 °C 30.23in /  1023.6hPa WSW 1mph /  1.6km/h 4mph /  6.4km/h 89% 0.00in /  0mm 153 W/m2
09:50 33.4 °F /  0.8 °C 30.5 °F /  -0.8 °C 30.23in /  1023.6hPa West 2mph /  3.2km/h 5mph /  8km/h 89% 0.00in /  0mm 151 W/m2
10:00 33.6 °F /  0.9 °C 29.9 °F /  -1.2 °C 30.23in /  1023.6hPa WSW 3mph /  4.8km/h 7mph /  11.3km/h 86% 0.00in /  0mm 159 W/m2
10:10 33.8 °F /  1 °C 29.8 °F /  -1.2 °C 30.23in /  1023.6hPa WSW 5mph /  8km/h 7mph /  11.3km/h 85% 0.00in /  0mm 172 W/m2
10:20 33.8 °F /  1 °C 29.5 °F /  -1.4 °C 30.23in /  1023.6hPa WSW 5mph /  8km/h 8mph /  12.9km/h 84% 0.00in /  0mm 171 W/m2
10:30 33.8 °F /  1 °C 29.5 °F /  -1.4 °C 30.23in /  1023.6hPa WSW 5mph /  8km/h 11mph /  17.7km/h 84% 0.00in /  0mm 167 W/m2
10:40 34 °F /  1.1 °C 29.9 °F /  -1.2 °C 30.23in /  1023.6hPa WSW 3mph /  4.8km/h 7mph /  11.3km/h 85% 0.00in /  0mm 159 W/m2
10:50 34 °F /  1.1 °C 29.7 °F /  -1.3 °C 30.23in /  1023.6hPa WSW 5mph /  8km/h 6mph /  9.7km/h 84% 0.00in /  0mm 181 W/m2
11:00 34.2 °F /  1.2 °C 29.5 °F /  -1.4 °C 30.23in /  1023.6hPa WSW 5mph /  8km/h 9mph /  14.5km/h 83% 0.00in /  0mm 163 W/m2
11:10 34.3 °F /  1.3 °C 30 °F /  -1.1 °C 30.23in /  1023.6hPa WSW 3mph /  4.8km/h 6mph /  9.7km/h 84% 0.11in /  2.79mm 165 W/m2
11:20 34.5 °F /  1.4 °C 30.2 °F /  -1 °C 30.22in /  1023.2hPa WSW 3mph /  4.8km/h 6mph /  9.7km/h 84% 0.00in /  0mm 192 W/m2
11:30 34.7 °F /  1.5 °C 29.5 °F /  -1.4 °C 30.22in /  1023.2hPa WSW 6mph /  9.7km/h 7mph /  11.3km/h 81% 0.00in /  0mm 227 W/m2
11:40 35 °F /  1.7 °C 30.4 °F /  -0.9 °C 30.22in /  1023.2hPa WSW 5mph /  8km/h 8mph /  12.9km/h 83% 0.00in /  0mm 245 W/m2
11:50 35.2 °F /  1.8 °C 30 °F /  -1.1 °C 30.22in /  1023.2hPa WSW 5mph /  8km/h 11mph /  17.7km/h 81% 0.00in /  0mm 220 W/m2
12:00 35.4 °F /  1.9 °C 29.6 °F /  -1.3 °C 30.21in /  1022.9hPa WSW 6mph /  9.7km/h 9mph /  14.5km/h 79% 0.00in /  0mm 244 W/m2
12:10 35.6 °F /  2 °C 29.7 °F /  -1.3 °C 30.21in /  1022.9hPa WSW 5mph /  8km/h 9mph /  14.5km/h 79% 0.00in /  0mm 250 W/m2
12:20 35.6 °F /  2 °C 29.1 °F /  -1.6 °C 30.20in /  1022.6hPa WSW 9mph /  14.5km/h 14mph /  22.5km/h 77% 0.00in /  0mm 234 W/m2
12:30 35.6 °F /  2 °C 29.1 °F /  -1.6 °C 30.20in /  1022.6hPa WSW 7mph /  11.3km/h 14mph /  22.5km/h 77% 0.00in /  0mm 251 W/m2
12:40 35.8 °F /  2.1 °C 28.6 °F /  -1.9 °C 30.20in /  1022.6hPa West 8mph /  12.9km/h 14mph /  22.5km/h 75% 0.00in /  0mm 204 W/m2
12:50 36 °F /  2.2 °C 28.5 °F /  -1.9 °C 30.20in /  1022.6hPa WSW 6mph /  9.7km/h 15mph /  24.1km/h 74% 0.00in /  0mm 188 W/m2
13:00 36 °F /  2.2 °C 28.5 °F /  -1.9 °C 30.20in /  1022.6hPa West 5mph /  8km/h 10mph /  16.1km/h 74% 0.00in /  0mm 88 W/m2
13:10 35.8 °F /  2.1 °C 28.3 °F /  -2.1 °C 30.20in /  1022.6hPa West 5mph /  8km/h 12mph /  19.3km/h 74% 0.00in /  0mm 80 W/m2
13:20 35.4 °F /  1.9 °C 28.3 °F /  -2.1 °C 30.19in /  1022.2hPa WNW 3mph /  4.8km/h 8mph /  12.9km/h 75% 0.00in /  0mm 85 W/m2
13:30 35.2 °F /  1.8 °C 28.1 °F /  -2.2 °C 30.19in /  1022.2hPa WSW 8mph /  12.9km/h 15mph /  24.1km/h 75% 0.00in /  0mm 135 W/m2
13:40 34.2 °F /  1.2 °C 29 °F /  -1.7 °C 30.19in /  1022.2hPa WSW 9mph /  14.5km/h 16mph /  25.7km/h 81% 0.00in /  0mm 164 W/m2
13:50 34 °F /  1.1 °C 29.7 °F /  -1.3 °C 30.19in /  1022.2hPa WSW 6mph /  9.7km/h 11mph /  17.7km/h 84% 0.00in /  0mm 150 W/m2
14:00 34.3 °F /  1.3 °C 30 °F /  -1.1 °C 30.19in /  1022.2hPa WSW 6mph /  9.7km/h 9mph /  14.5km/h 84% 0.00in /  0mm 97 W/m2
14:10 34.9 °F /  1.6 °C 30.2 °F /  -1 °C 30.19in /  1022.2hPa WSW 5mph /  8km/h 9mph /  14.5km/h 83% 0.00in /  0mm 184 W/m2
14:20 35.2 °F /  1.8 °C 29.7 °F /  -1.3 °C 30.19in /  1022.2hPa WNW 7mph /  11.3km/h 12mph /  19.3km/h 80% 0.00in /  0mm 76 W/m2
14:30 35.1 °F /  1.7 °C 28.9 °F /  -1.7 °C 30.19in /  1022.2hPa WNW 8mph /  12.9km/h 15mph /  24.1km/h 78% 0.00in /  0mm 73 W/m2
Knjazevac, Serbia
Compliments of Weather Underground - 2 mb